Time;durP1;ratioP1;P1;durP2;ratioP2;P2;SDS_P1;SDS_P2;PMS_P1;PMS_P2;Temp;Humidity;BMP_temperature;BMP_pressure;BME280_temperature;BME280_humidity;BME280_pressure;Samples;Min_cycle;Max_cycle;Signal;HPM_P1;HPM_P2
2020/12/02 00:00:34;;;;;;;46.38;23.58;;;1.30;78.50;;;0.08;63.88;95157.13;5037599;28;20681;-82
2020/12/02 00:03:28;;;;;;;52.40;25.83;;;1.30;78.50;;;0.04;63.81;95143.66;5054009;28;20701;-82
2020/12/02 00:05:57;;;;;;;49.03;24.70;;;1.20;78.40;;;0.06;63.59;95146.09;5054608;28;20766;-82
2020/12/02 00:08:35;;;;;;;60.35;27.10;;;1.20;78.40;;;-0.01;64.00;95141.41;5061359;28;20236;-81
2020/12/02 00:11:08;;;;;;;53.80;25.23;;;1.20;78.40;;;0.04;63.92;95140.22;5091681;28;20236;-82
2020/12/02 00:13:45;;;;;;;47.67;23.55;;;1.20;78.40;;;0.04;64.01;95153.97;5093176;28;20304;-82
2020/12/02 00:16:24;;;;;;;52.42;26.08;;;1.20;78.40;;;0.07;64.27;95147.75;5091912;28;20190;-82
2020/12/02 00:18:53;;;;;;;50.90;25.40;;;1.20;78.50;;;0.08;64.03;95146.81;5074935;28;20218;-82
2020/12/02 00:21:25;;;;;;;53.90;26.52;;;1.20;79.40;;;0.10;64.00;95150.91;5091162;28;20247;-82
2020/12/02 00:23:53;;;;;;;51.80;26.20;;;1.20;78.60;;;0.09;64.10;95148.44;5075180;28;20288;-81
2020/12/02 00:26:21;;;;;;;50.83;27.02;;;1.20;78.60;;;0.13;64.28;95152.41;5091304;28;20294;-81
2020/12/02 00:28:50;;;;;;;56.88;28.77;;;1.30;78.60;;;0.13;64.11;95152.41;5092217;28;20227;-82
2020/12/02 00:31:18;;;;;;;56.58;28.73;;;1.30;78.60;;;0.11;63.92;95149.13;5074846;28;20297;-82
2020/12/02 00:33:46;;;;;;;53.55;25.83;;;1.30;78.50;;;0.14;63.97;95146.31;5067788;28;20314;-82
2020/12/02 00:36:14;;;;;;;49.53;25.52;;;1.30;78.50;;;0.12;64.08;95130.13;5055121;28;20203;-81
2020/12/02 00:38:42;;;;;;;52.85;26.25;;;1.30;78.50;;;0.17;63.83;95146.06;5054937;28;20231;-82
2020/12/02 00:41:11;;;;;;;48.20;24.38;;;1.30;78.50;;;0.17;63.85;95140.91;5072293;28;20206;-82
2020/12/02 00:43:38;;;;;;;56.38;27.73;;;1.30;78.50;;;0.18;64.10;95146.88;5091899;28;20219;-82
2020/12/02 00:46:05;;;;;;;58.40;29.17;;;1.30;78.50;;;0.16;64.02;95136.69;5091646;28;20226;-82
2020/12/02 00:48:34;;;;;;;58.83;28.88;;;1.30;78.50;;;0.17;63.96;95132.34;5074511;28;20310;-81
2020/12/02 00:51:05;;;;;;;55.15;28.05;;;1.30;78.50;;;0.17;63.91;95140.09;5075340;28;20243;-81
2020/12/02 00:53:35;;;;;;;57.90;28.95;;;1.30;78.50;;;0.16;64.15;95136.69;5092174;28;20225;-82
2020/12/02 00:56:05;;;;;;;57.00;27.75;;;1.30;78.50;;;0.14;63.78;95148.88;5075015;28;20289;-82
2020/12/02 00:58:48;;;;;;;58.30;27.77;;;1.30;78.50;;;0.12;63.80;95143.88;5091519;28;20311;-82
2020/12/02 01:01:29;;;;;;;53.72;26.35;;;1.30;78.50;;;0.14;63.80;95144.53;5089505;28;20199;-82
2020/12/02 01:03:58;;;;;;;47.92;25.63;;;1.30;78.50;;;0.10;63.85;95140.56;5048348;28;20250;-81
2020/12/02 01:06:25;;;;;;;49.97;25.38;;;1.30;78.50;;;0.14;63.80;95141.16;5091203;28;20581;-81
2020/12/02 01:08:52;;;;;;;51.30;26.77;;;1.30;78.50;;;0.11;63.79;95137.06;5091187;28;20260;-82
2020/12/02 01:11:26;;;;;;;54.63;27.85;;;1.30;78.50;;;0.09;63.76;95131.19;5073994;28;20579;-81
2020/12/02 01:14:00;;;;;;;51.10;25.35;;;1.30;78.50;;;0.08;63.95;95132.13;5074473;28;20254;-81
2020/12/02 01:16:41;;;;;;;48.60;26.10;;;1.30;78.50;;;0.06;63.64;95128.88;5091198;28;20210;-81
2020/12/02 01:19:16;;;;;;;44.70;23.73;;;1.30;78.50;;;0.04;63.57;95137.66;5074344;28;20301;-81
2020/12/02 01:22:18;;;;;;;50.53;23.73;;;1.20;78.40;;;0.02;63.80;95136.97;5074490;28;20193;-81
2020/12/02 01:24:57;;;;;;;48.70;25.55;;;1.30;78.50;;;0.00;63.60;95137.09;5068052;28;20272;-82
2020/12/02 01:27:34;;;;;;;44.08;22.27;;;1.20;78.40;;;-0.02;63.85;95137.19;5057812;28;20568;-81
2020/12/02 01:30:01;;;;;;;47.05;23.70;;;1.20;78.40;;;-0.01;63.70;95131.09;5057644;28;20226;-82
2020/12/02 01:32:27;;;;;;;49.95;24.05;;;1.20;78.40;;;0.01;63.86;95143.06;5075995;28;20191;-82
2020/12/02 01:34:54;;;;;;;48.50;24.40;;;1.20;78.40;;;-0.03;63.94;95130.41;5095275;28;20222;-82
2020/12/02 01:37:30;;;;;;;52.50;26.05;;;1.20;78.40;;;-0.01;64.02;95130.31;5061576;28;20233;-82
2020/12/02 01:40:26;;;;;;;61.05;29.10;;;1.20;78.40;;;-0.02;63.83;95138.97;5078360;28;20254;-81
2020/12/02 01:43:03;;;;;;;60.53;29.40;;;1.20;78.40;;;-0.06;63.92;95135.81;5078279;28;20194;-82
2020/12/02 01:45:48;;;;;;;52.10;26.73;;;1.20;78.40;;;-0.10;63.91;95126.66;5094357;28;20221;-81
2020/12/02 01:48:55;;;;;;;54.08;26.77;;;1.20;78.40;;;-0.12;63.88;95131.16;5061570;28;20203;-81
2020/12/02 01:51:42;;;;;;;51.95;25.38;;;1.10;78.30;;;-0.13;63.78;95134.66;5061248;28;20202;-82
2020/12/02 01:54:13;;;;;;;55.78;26.05;;;1.10;78.30;;;-0.17;63.96;95128.91;5074505;28;20250;-81
2020/12/02 01:56:54;;;;;;;48.35;24.48;;;1.10;78.40;;;-0.20;63.80;95123.19;5073780;28;20264;-81
2020/12/02 01:59:56;;;;;;;52.40;25.30;;;1.10;78.40;;;-0.20;63.95;95121.41;5074252;28;20207;-81
2020/12/02 02:02:47;;;;;;;50.25;25.52;;;1.10;78.30;;;-0.19;63.91;95120.47;5057179;28;20195;-82
2020/12/02 02:06:03;;;;;;;50.17;24.90;;;1.10;78.30;;;-0.29;63.96;95108.44;5074023;28;20290;-81
2020/12/02 02:08:34;;;;;;;51.17;25.15;;;1.00;78.30;;;-0.22;63.81;95125.88;5044376;28;20234;-81
2020/12/02 02:11:05;;;;;;;54.25;26.63;;;1.00;78.30;;;-0.23;63.70;95113.09;5077559;28;20675;-81
2020/12/02 02:14:07;;;;;;;54.83;26.98;;;1.00;78.30;;;-0.26;63.80;95119.31;5077604;28;20688;-82
2020/12/02 02:16:45;;;;;;;53.90;26.13;;;1.00;78.30;;;-0.29;63.62;95108.44;5094209;28;20706;-82
2020/12/02 02:19:25;;;;;;;51.42;26.80;;;1.00;78.30;;;-0.30;63.54;95106.81;5077291;28;20296;-81
2020/12/02 02:21:56;;;;;;;55.13;26.83;;;1.00;78.30;;;-0.30;63.93;95107.63;5092908;28;20199;-81
2020/12/02 02:24:24;;;;;;;52.75;26.35;;;1.00;78.30;;;-0.32;63.89;95104.34;5056246;28;20254;-80
2020/12/02 02:26:55;;;;;;;53.40;26.17;;;0.90;78.30;;;-0.34;63.87;95101.09;5074241;28;20248;-80
2020/12/02 02:29:37;;;;;;;46.65;23.20;;;0.90;78.20;;;-0.34;64.06;95098.50;5073054;28;20230;-82
2020/12/02 02:32:15;;;;;;;43.10;21.38;;;0.90;78.20;;;-0.35;63.59;95102.81;5075972;28;20202;-81
2020/12/02 02:34:48;;;;;;;42.05;22.52;;;0.90;78.20;;;-0.36;63.63;95097.78;5072823;28;20219;-81
2020/12/02 02:37:18;;;;;;;50.08;25.42;;;0.90;78.20;;;-0.35;63.57;95097.66;5090755;28;20268;-80
2020/12/02 02:39:45;;;;;;;47.72;24.33;;;0.90;78.20;;;-0.35;63.95;95089.13;5070069;28;20395;-81
2020/12/02 02:42:47;;;;;;;49.13;25.08;;;0.80;78.20;;;-0.35;63.67;95086.56;5072097;28;20633;-81
2020/12/02 02:45:26;;;;;;;51.95;24.40;;;0.80;79.00;;;-0.34;63.81;95090.78;5064091;28;20283;-81
2020/12/02 02:47:56;;;;;;;49.92;24.42;;;0.90;78.20;;;-0.35;63.59;95091.72;5063046;28;20203;-80
2020/12/02 02:50:25;;;;;;;50.40;25.83;;;0.80;78.20;;;-0.37;63.23;95086.66;5071113;28;20693;-81
2020/12/02 02:52:53;;;;;;;55.40;25.95;;;0.90;78.30;;;-0.37;63.62;95085.84;5075292;28;20282;-81
2020/12/02 02:55:24;;;;;;;52.10;23.75;;;0.80;78.20;;;-0.37;63.78;95091.00;5074513;28;20715;-80
2020/12/02 02:57:51;;;;;;;48.15;25.92;;;0.90;78.20;;;-0.45;63.72;95083.88;5058524;28;20219;-80
2020/12/02 03:00:23;;;;;;;48.17;23.52;;;0.80;78.20;;;-0.40;63.66;95089.47;5075031;28;20234;-80
2020/12/02 03:02:50;;;;;;;46.35;24.58;;;0.80;78.20;;;-0.42;63.61;95095.69;5076378;28;20716;-81
2020/12/02 03:05:17;;;;;;;46.90;23.75;;;0.80;78.20;;;-0.44;63.68;95092.41;5093293;28;20302;-81
2020/12/02 03:07:44;;;;;;;49.38;25.25;;;0.80;78.20;;;-0.43;63.81;95088.91;5060116;28;20206;-81
2020/12/02 03:10:15;;;;;;;47.47;24.65;;;0.80;78.20;;;-0.49;63.72;95085.03;5092940;28;20254;-82
2020/12/02 03:12:44;;;;;;;46.58;23.55;;;0.80;78.20;;;-0.42;63.83;95093.94;5075388;28;20206;-81
2020/12/02 03:15:11;;;;;;;47.67;24.33;;;0.80;78.20;;;-0.42;63.82;95080.25;5091310;28;20225;-82
2020/12/02 03:17:38;;;;;;;47.10;23.23;;;0.80;78.20;;;-0.44;63.83;95085.53;5057180;28;20558;-81
2020/12/02 03:20:15;;;;;;;42.55;21.80;;;0.70;78.10;;;-0.45;63.82;95075.31;5059761;28;20214;-81
2020/12/02 03:22:43;;;;;;;41.33;21.20;;;0.70;78.10;;;-0.41;63.95;95069.00;5070241;28;20199;-81
2020/12/02 03:25:21;;;;;;;40.67;20.70;;;0.70;78.10;;;-0.40;63.71;95076.59;5089512;28;20288;-80
2020/12/02 03:27:48;;;;;;;45.03;23.13;;;0.70;78.10;;;-0.42;63.78;95081.03;5087841;28;20191;-82
2020/12/02 03:30:14;;;;;;;48.72;24.60;;;0.70;78.10;;;-0.42;63.72;95077.66;5069888;28;20626;-81
2020/12/02 03:32:42;;;;;;;48.90;23.35;;;0.80;78.20;;;-0.45;63.80;95083.88;5074217;28;20284;-80
2020/12/02 03:35:11;;;;;;;41.45;21.73;;;0.80;78.20;;;-0.44;63.88;95076.94;5072133;28;20211;-81
2020/12/02 03:37:38;;;;;;;43.22;23.02;;;0.80;78.20;;;-0.45;63.48;95088.19;5065806;28;20622;-81
2020/12/02 03:40:08;;;;;;;45.38;23.90;;;0.80;78.20;;;-0.45;63.61;95083.03;5069373;28;20215;-81
2020/12/02 03:42:35;;;;;;;49.67;24.05;;;0.70;78.10;;;-0.46;63.68;95082.22;5090901;28;20218;-81
2020/12/02 03:45:06;;;;;;;42.88;22.63;;;0.80;78.20;;;-0.45;63.80;95081.31;5074292;28;20218;-80
2020/12/02 03:47:33;;;;;;;45.65;21.90;;;0.70;78.10;;;-0.45;63.44;95080.47;5072290;28;20186;-80
2020/12/02 03:50:01;;;;;;;43.08;21.83;;;0.70;78.10;;;-0.47;63.70;95082.38;5058217;28;20230;-81
2020/12/02 03:52:28;;;;;;;42.35;21.90;;;0.70;78.10;;;-0.50;63.63;95076.50;5057222;28;20199;-81
2020/12/02 03:54:55;;;;;;;42.03;22.02;;;0.70;78.10;;;-0.51;63.58;95082.59;5057023;28;20803;-81
2020/12/02 03:57:21;;;;;;;43.20;21.55;;;0.70;78.10;;;-0.55;63.19;95077.78;5052183;28;20294;-80
2020/12/02 03:59:48;;;;;;;45.72;22.65;;;0.70;78.10;;;-0.57;63.35;95093.38;5081525;28;20551;-80
2020/12/02 04:02:14;;;;;;;41.80;21.27;;;0.70;78.10;;;-0.58;63.35;95084.00;5071849;28;20668;-82
2020/12/02 04:04:42;;;;;;;44.42;21.65;;;0.70;78.10;;;-0.62;63.33;95087.75;5072493;28;20239;-81
2020/12/02 04:07:09;;;;;;;45.65;22.73;;;0.70;78.10;;;-0.65;63.06;95091.41;5056843;28;20210;-81
2020/12/02 04:09:36;;;;;;;43.47;22.08;;;0.60;77.90;;;-0.66;63.23;95086.34;5087818;28;20788;-81
2020/12/02 04:12:04;;;;;;;47.28;22.75;;;0.60;78.00;;;-0.69;63.15;95094.31;5072316;28;20222;-81
2020/12/02 04:14:30;;;;;;;43.78;21.38;;;0.60;78.00;;;-0.70;63.04;95090.91;5072433;28;20237;-81
2020/12/02 04:16:57;;;;;;;44.70;22.33;;;0.60;78.00;;;-0.72;63.05;95091.97;5056475;28;20696;-81
2020/12/02 04:19:24;;;;;;;42.42;21.83;;;0.50;77.90;;;-0.74;62.95;95086.13;5056676;28;20211;-81
2020/12/02 04:21:55;;;;;;;46.85;23.48;;;0.50;78.00;;;-0.79;62.87;95085.66;5089694;28;20202;-82
2020/12/02 04:24:22;;;;;;;51.55;23.67;;;0.50;77.80;;;-0.78;63.24;95084.72;5090125;28;20732;-81
2020/12/02 04:26:50;;;;;;;44.85;22.25;;;0.50;77.90;;;-0.77;63.14;95088.94;5089738;28;20186;-80
2020/12/02 04:29:17;;;;;;;43.90;22.63;;;0.50;77.90;;;-0.76;63.11;95093.16;5053128;28;20230;-81
2020/12/02 04:31:44;;;;;;;44.95;22.10;;;0.50;77.80;;;-0.77;63.05;95091.50;5055747;28;20267;-81
2020/12/02 04:34:10;;;;;;;45.33;21.65;;;0.50;77.90;;;-0.77;63.22;95079.44;5089898;28;20248;-81
2020/12/02 04:36:37;;;;;;;50.95;24.13;;;0.50;77.90;;;-0.78;63.01;95085.56;5073395;28;20285;-81
2020/12/02 04:39:05;;;;;;;46.80;23.70;;;0.40;77.80;;;-0.81;62.93;95076.31;5056670;28;20711;-82
2020/12/02 04:41:33;;;;;;;44.95;22.48;;;0.50;77.90;;;-0.79;62.95;95081.34;5089833;28;20198;-80
2020/12/02 04:44:00;;;;;;;44.25;22.70;;;0.40;77.80;;;-0.78;63.13;95080.41;5090089;28;20272;-82
2020/12/02 04:46:33;;;;;;;49.20;23.15;;;0.40;77.90;;;-0.77;63.12;95074.28;5090515;28;20225;-81
2020/12/02 04:49:15;;;;;;;49.08;24.23;;;0.40;77.90;;;-0.80;63.07;95066.81;5081502;28;20227;-81
2020/12/02 04:51:44;;;;;;;47.92;23.88;;;0.40;77.90;;;-0.79;63.05;95063.31;5054855;28;20199;-81
2020/12/02 04:54:12;;;;;;;45.50;22.25;;;0.40;77.80;;;-0.77;63.05;95068.34;5059258;28;20685;-82
2020/12/02 04:56:45;;;;;;;40.63;21.45;;;0.40;77.90;;;-0.77;62.91;95063.19;5037677;28;20203;-81
2020/12/02 04:59:12;;;;;;;42.17;22.48;;;0.40;77.90;;;-0.74;63.21;95070.69;5075118;28;20691;-81
2020/12/02 05:01:50;;;;;;;46.40;22.85;;;0.50;77.90;;;-0.74;63.12;95074.06;5074218;28;20298;-82
2020/12/02 05:04:27;;;;;;;51.75;23.70;;;0.50;77.90;;;-0.74;63.00;95068.09;5074977;28;20221;-81
2020/12/02 05:07:16;;;;;;;44.35;22.55;;;0.50;77.80;;;-0.75;62.84;95069.84;5058395;28;20218;-82
2020/12/02 05:10:14;;;;;;;44.42;21.85;;;0.50;77.70;;;-0.73;63.02;95073.13;5062085;28;20233;-81
2020/12/02 05:12:47;;;;;;;44.53;21.40;;;0.50;77.90;;;-0.70;63.01;95069.50;5074876;28;20641;-80
2020/12/02 05:15:25;;;;;;;48.63;22.35;;;0.50;77.90;;;-0.66;62.94;95065.75;5058311;28;20638;-82
2020/12/02 05:18:14;;;;;;;48.45;23.15;;;0.50;78.00;;;-0.65;63.07;95062.22;5058749;28;20219;-81
2020/12/02 05:21:20;;;;;;;43.75;22.10;;;0.50;77.90;;;-0.65;62.71;95057.06;5076038;28;20640;-81
2020/12/02 05:24:18;;;;;;;45.15;21.70;;;0.50;77.90;;;-0.66;63.14;95058.84;5059785;28;20211;-81
2020/12/02 05:26:49;;;;;;;41.28;21.13;;;0.50;77.80;;;-0.65;62.79;95057.06;5057759;28;20195;-80
2020/12/02 05:29:41;;;;;;;46.30;22.33;;;0.50;77.70;;;-0.63;62.83;95055.22;5041906;28;20272;-81
2020/12/02 05:32:19;;;;;;;50.33;23.10;;;0.60;77.80;;;-0.61;63.03;95048.19;5074668;28;20234;-81
2020/12/02 05:34:47;;;;;;;48.63;22.48;;;0.60;77.80;;;-0.58;62.63;95044.56;5058001;28;20223;-81
2020/12/02 05:37:44;;;;;;;49.25;23.05;;;0.60;77.90;;;-0.57;63.15;95041.84;5057914;28;20198;-82
2020/12/02 05:40:15;;;;;;;49.42;22.63;;;0.60;77.90;;;-0.57;63.08;95046.19;5050947;28;20226;-80
2020/12/02 05:42:54;;;;;;;51.75;24.10;;;0.60;77.90;;;-0.54;62.77;95044.19;5094756;28;20190;-81
2020/12/02 05:45:28;;;;;;;47.78;23.65;;;0.60;77.80;;;-0.55;62.71;95039.97;5094853;28;20226;-81
2020/12/02 05:47:55;;;;;;;45.72;23.00;;;0.60;77.80;;;-0.51;62.69;95037.97;5095056;28;20198;-82
2020/12/02 05:50:24;;;;;;;47.10;23.15;;;0.70;77.90;;;-0.49;62.77;95038.66;5077828;28;20219;-81
2020/12/02 05:53:12;;;;;;;49.45;24.65;;;0.70;77.80;;;-0.50;62.73;95040.44;5094594;28;20218;-81
2020/12/02 05:55:39;;;;;;;48.78;23.92;;;0.70;77.80;;;-0.50;62.84;95032.69;5095075;28;20226;-81
2020/12/02 05:58:09;;;;;;;53.42;23.98;;;0.70;77.80;;;-0.46;62.89;95024.72;5094148;28;20229;-82
2020/12/02 06:00:36;;;;;;;48.55;23.88;;;0.70;77.80;;;-0.47;62.83;95033.41;5111326;28;20660;-81
2020/12/02 06:03:08;;;;;;;46.45;23.35;;;0.70;77.80;;;-0.52;62.84;95029.41;5094822;28;20240;-81
2020/12/02 06:05:35;;;;;;;48.15;22.85;;;0.70;77.70;;;-0.46;62.94;95030.69;5094428;28;20187;-82
2020/12/02 06:08:06;;;;;;;47.00;22.77;;;0.70;77.80;;;-0.47;62.83;95025.69;5094396;28;20210;-82
2020/12/02 06:10:43;;;;;;;48.97;24.83;;;0.70;77.80;;;-0.41;62.94;95038.88;5073741;28;20642;-82
2020/12/02 06:13:44;;;;;;;46.60;23.38;;;0.70;77.70;;;-0.40;63.00;95034.56;5057469;28;20541;-81
2020/12/02 06:16:16;;;;;;;46.03;22.73;;;0.80;77.80;;;-0.39;62.94;95034.44;5057309;28;20195;-82
2020/12/02 06:18:43;;;;;;;45.10;21.80;;;0.80;77.80;;;-0.36;62.96;95030.78;5056238;28;20257;-81
2020/12/02 06:21:37;;;;;;;45.22;21.52;;;0.80;77.90;;;-0.34;62.95;95031.50;5057819;28;20203;-81
2020/12/02 06:24:04;;;;;;;48.97;24.35;;;0.80;77.80;;;-0.37;62.88;95034.31;5057165;28;20211;-81
2020/12/02 06:26:40;;;;;;;48.00;23.10;;;0.80;77.80;;;-0.33;62.45;95040.84;5073308;28;20199;-81
2020/12/02 06:29:25;;;;;;;43.28;22.00;;;0.90;77.80;;;-0.35;62.70;95035.00;5073606;28;20242;-80
2020/12/02 06:31:59;;;;;;;45.17;22.98;;;0.80;77.80;;;-0.32;62.91;95042.47;5073461;28;20218;-81
2020/12/02 06:34:29;;;;;;;45.92;22.20;;;0.90;77.80;;;-0.29;62.77;95041.41;5057196;28;20269;-81
2020/12/02 06:37:11;;;;;;;41.28;20.92;;;0.80;77.80;;;-0.29;62.92;95031.94;5073648;28;20278;-81
2020/12/02 06:39:53;;;;;;;44.95;20.85;;;0.90;77.80;;;-0.29;62.86;95036.25;5095716;28;20338;-81
2020/12/02 06:42:41;;;;;;;39.97;20.33;;;0.90;77.80;;;-0.29;62.71;95031.94;5093884;28;20191;-80
2020/12/02 06:45:31;;;;;;;44.25;21.65;;;0.90;77.70;;;-0.28;62.45;95037.91;5093447;28;20230;-81
2020/12/02 06:48:13;;;;;;;47.30;23.27;;;0.90;77.80;;;-0.30;62.84;95027.72;5077750;28;20197;-82
2020/12/02 06:50:41;;;;;;;43.85;22.75;;;0.90;77.80;;;-0.30;62.68;95025.16;5076609;28;20191;-81
2020/12/02 06:53:17;;;;;;;50.92;21.83;;;0.90;77.80;;;-0.31;62.69;95018.34;5093770;28;20226;-81
2020/12/02 06:55:45;;;;;;;48.15;23.55;;;0.90;77.80;;;-0.29;62.58;95031.09;5093509;28;20183;-82
2020/12/02 06:58:18;;;;;;;48.58;23.10;;;1.00;77.80;;;-0.29;62.66;95031.94;5093116;28;20560;-81
2020/12/02 07:00:49;;;;;;;46.75;23.35;;;0.90;77.70;;;-0.28;62.71;95035.31;5093380;28;20191;-82
2020/12/02 07:03:42;;;;;;;46.60;23.30;;;0.90;77.80;;;-0.31;62.62;95025.28;5093668;28;20191;-82
2020/12/02 07:06:24;;;;;;;46.15;21.90;;;0.90;77.70;;;-0.28;62.95;95025.84;5066069;28;20233;-81
2020/12/02 07:09:13;;;;;;;49.90;24.63;;;0.90;77.80;;;-0.28;62.99;95037.91;5093546;28;20297;-82
2020/12/02 07:12:02;;;;;;;48.03;23.77;;;0.90;77.70;;;-0.25;62.79;95042.81;5093045;28;20274;-82
2020/12/02 07:14:39;;;;;;;50.47;23.52;;;0.90;77.70;;;-0.26;62.72;95038.63;5093217;28;20218;-81
2020/12/02 07:17:10;;;;;;;44.67;21.25;;;0.90;77.70;;;-0.23;62.63;95039.19;5076236;28;20202;-81
2020/12/02 07:19:48;;;;;;;47.78;23.65;;;0.90;77.80;;;-0.23;62.98;95041.75;5093028;28;20588;-82
2020/12/02 07:22:27;;;;;;;47.53;23.60;;;0.90;77.80;;;-0.22;62.88;95045.97;5076689;28;20202;-81
2020/12/02 07:25:07;;;;;;;52.05;25.27;;;0.90;77.80;;;-0.20;62.91;95051.81;5092568;28;20218;-80
2020/12/02 07:27:42;;;;;;;46.28;22.63;;;0.90;77.90;;;-0.20;62.76;95051.00;5092631;28;20190;-81
2020/12/02 07:30:22;;;;;;;47.88;23.95;;;0.90;77.90;;;-0.17;63.01;95050.78;5075626;28;20271;-80
2020/12/02 07:32:49;;;;;;;51.88;24.52;;;0.90;77.80;;;-0.15;62.84;95053.22;5092594;28;20556;-81
2020/12/02 07:35:17;;;;;;;46.08;24.67;;;0.90;77.80;;;-0.14;62.85;95053.09;5092389;28;20215;-81
2020/12/02 07:37:44;;;;;;;48.33;23.52;;;1.00;77.90;;;-0.13;62.88;95046.19;5092759;28;20317;-81
2020/12/02 07:40:41;;;;;;;48.92;23.75;;;1.00;77.90;;;-0.15;62.97;95041.16;5092567;28;20231;-81
2020/12/02 07:43:27;;;;;;;50.00;24.83;;;1.00;77.90;;;-0.12;63.01;95048.66;5072023;28;20268;-81
2020/12/02 07:45:59;;;;;;;49.13;23.95;;;1.00;77.80;;;-0.10;62.96;95051.91;5092373;28;20202;-81
2020/12/02 07:48:28;;;;;;;55.28;25.75;;;1.00;77.90;;;-0.09;62.88;95050.97;5092189;28;20202;-81
2020/12/02 07:51:02;;;;;;;49.42;25.08;;;1.10;78.00;;;-0.12;63.06;95043.50;5092456;28;20226;-82
2020/12/02 07:53:44;;;;;;;49.83;24.38;;;1.10;78.00;;;-0.06;62.78;95045.56;5075671;28;20590;-82
2020/12/02 07:56:18;;;;;;;50.33;24.83;;;1.10;77.90;;;-0.04;63.05;95048.84;5089161;28;20214;-81
2020/12/02 07:58:46;;;;;;;47.33;23.27;;;1.00;77.90;;;-0.03;62.97;95041.94;5074969;28;20249;-81
2020/12/02 08:01:35;;;;;;;48.63;23.42;;;1.10;78.00;;;-0.07;63.03;95045.69;5073981;28;20249;-81
2020/12/02 08:04:41;;;;;;;45.78;22.42;;;1.10;78.00;;;-0.04;62.90;95046.28;5073418;28;20281;-81
2020/12/02 08:07:11;;;;;;;51.45;24.90;;;1.10;78.00;;;-0.04;62.98;95048.84;5028762;28;20198;-81
2020/12/02 08:09:50;;;;;;;47.65;23.60;;;1.10;77.90;;;0.00;62.99;95039.13;5056872;28;20214;-81
2020/12/02 08:12:26;;;;;;;60.33;23.77;;;1.10;78.00;;;0.02;63.16;95050.09;5057115;28;20195;-82
2020/12/02 08:15:10;;;;;;;46.05;23.52;;;1.10;78.00;;;0.01;63.11;95045.88;5073204;28;20263;-81
2020/12/02 08:17:41;;;;;;;52.35;25.83;;;1.20;78.10;;;0.06;62.89;95040.38;5057957;28;20215;-81
2020/12/02 08:20:32;;;;;;;51.42;25.88;;;1.20;78.10;;;0.06;63.03;95046.34;5073285;28;20221;-81
2020/12/02 08:23:14;;;;;;;52.22;24.33;;;1.20;78.10;;;0.07;62.93;95042.81;5057034;28;20191;-81
2020/12/02 08:25:44;;;;;;;54.65;24.92;;;1.20;78.10;;;0.06;63.02;95046.34;5072738;28;20245;-80
2020/12/02 08:28:20;;;;;;;47.50;24.60;;;1.20;78.10;;;0.09;62.90;95042.72;5089233;28;20187;-80
2020/12/02 08:30:59;;;;;;;48.65;23.98;;;1.20;78.10;;;0.10;62.98;95039.19;5056895;28;20199;-81
2020/12/02 08:33:26;;;;;;;53.30;26.23;;;1.20;78.10;;;0.12;63.10;95040.69;5069459;28;20206;-81
2020/12/02 08:35:53;;;;;;;51.60;25.13;;;1.20;78.10;;;0.18;62.86;95034.22;5054162;28;20199;-81
2020/12/02 08:38:33;;;;;;;53.40;25.13;;;1.20;78.20;;;0.23;62.73;95044.16;5054315;28;20223;-81
2020/12/02 08:41:02;;;;;;;51.38;24.52;;;1.20;78.10;;;0.25;62.84;95040.50;5070335;28;20698;-81
2020/12/02 08:43:31;;;;;;;51.17;25.10;;;1.30;78.30;;;0.26;63.25;95033.59;5090882;28;20795;-81
2020/12/02 08:46:19;;;;;;;50.17;23.60;;;1.30;78.20;;;0.32;62.84;95038.25;5072283;28;20681;-82
2020/12/02 08:48:53;;;;;;;45.10;23.67;;;1.40;78.20;;;0.30;62.61;95037.56;5071501;28;20211;-81
2020/12/02 08:51:22;;;;;;;55.08;25.40;;;1.40;78.90;;;0.27;62.69;95041.22;5054609;28;20187;-81
2020/12/02 08:53:51;;;;;;;45.28;23.50;;;1.40;78.00;;;0.24;62.79;95033.69;5072397;28;20261;-81
2020/12/02 08:56:34;;;;;;;51.45;26.10;;;1.40;78.00;;;0.23;62.79;95042.41;5054621;28;20206;-81
2020/12/02 08:59:05;;;;;;;52.00;24.52;;;1.40;77.90;;;0.23;62.73;95037.25;5054911;28;20242;-81
2020/12/02 09:01:32;;;;;;;50.17;24.33;;;1.40;77.90;;;0.20;62.60;95040.06;5054422;28;20202;-81
2020/12/02 09:04:00;;;;;;;53.72;25.77;;;1.30;77.80;;;0.20;62.73;95036.69;5054531;28;20273;-81
2020/12/02 09:06:27;;;;;;;41.40;22.38;;;1.40;77.90;;;0.22;62.79;95034.78;5038212;28;20543;-81
2020/12/02 09:08:55;;;;;;;49.28;24.88;;;1.30;77.80;;;0.17;62.85;95018.88;5054661;28;20222;-81
2020/12/02 09:11:35;;;;;;;53.20;24.02;;;1.40;77.80;;;0.16;62.70;95020.63;5057380;28;20267;-81
2020/12/02 09:14:05;;;;;;;49.80;25.33;;;1.30;77.80;;;0.08;62.90;95010.13;5091012;28;20275;-81
2020/12/02 09:16:38;;;;;;;52.83;25.50;;;1.30;77.70;;;0.11;62.81;95004.69;5074572;28;20199;-81
2020/12/02 09:19:10;;;;;;;61.85;27.95;;;1.30;77.80;;;0.13;62.95;95013.94;5074107;28;20311;-80
2020/12/02 09:21:43;;;;;;;51.78;25.45;;;1.30;77.80;;;0.10;62.79;95006.47;5091122;28;20198;-81
2020/12/02 09:24:10;;;;;;;50.33;25.70;;;1.20;77.80;;;0.11;62.76;94997.78;5057666;28;20217;-81
2020/12/02 09:26:38;;;;;;;49.00;25.00;;;1.30;77.90;;;0.14;62.89;94991.56;5074102;28;20210;-81
2020/12/02 09:29:09;;;;;;;47.35;24.65;;;1.30;77.90;;;0.10;62.78;94996.16;5070429;28;20222;-80
2020/12/02 09:31:36;;;;;;;56.92;27.13;;;1.30;77.90;;;0.14;62.86;94991.56;5079683;28;20241;-80
2020/12/02 09:34:05;;;;;;;55.75;27.08;;;1.30;77.90;;;0.14;62.63;94999.31;5068780;28;20273;-81
2020/12/02 09:36:35;;;;;;;54.10;25.23;;;1.30;77.90;;;0.17;62.89;94993.06;5057156;28;20234;-81
2020/12/02 09:39:05;;;;;;;50.58;24.55;;;1.30;77.90;;;0.20;62.74;94990.25;5072167;28;20222;-80
2020/12/02 09:42:23;;;;;;;53.90;25.33;;;1.30;78.80;;;0.20;63.04;94985.09;5064191;28;20203;-81
2020/12/02 09:45:23;;;;;;;51.53;26.17;;;1.30;78.00;;;0.20;62.98;94987.69;5070984;28;20211;-80
2020/12/02 09:47:50;;;;;;;53.63;26.50;;;1.30;77.90;;;0.19;62.63;94975.72;5068508;28;20268;-81
2020/12/02 09:50:17;;;;;;;54.08;25.60;;;1.30;78.00;;;0.23;62.69;94977.91;5071165;28;20759;-81
2020/12/02 09:52:49;;;;;;;59.13;24.55;;;1.30;78.00;;;0.27;63.02;94971.56;5073809;28;20198;-82
2020/12/02 09:55:24;;;;;;;47.70;25.45;;;1.30;78.00;;;0.32;62.79;94969.41;5073089;28;20214;-81
2020/12/02 09:57:53;;;;;;;45.85;24.40;;;1.40;78.10;;;0.35;62.99;94975.25;5090414;28;20230;-81
2020/12/02 10:00:23;;;;;;;56.92;24.70;;;1.40;78.10;;;0.37;62.73;94969.03;5095808;28;20253;-81
2020/12/02 10:03:32;;;;;;;41.78;22.45;;;1.40;78.00;;;0.39;62.79;94962.00;5061088;28;20198;-81
2020/12/02 10:06:30;;;;;;;47.47;24.33;;;1.40;78.00;;;0.44;62.89;94959.84;5077404;28;20199;-82
2020/12/02 10:09:09;;;;;;;45.75;23.73;;;1.40;78.00;;;0.44;62.90;94959.00;5077380;28;20227;-81
2020/12/02 10:11:58;;;;;;;49.92;23.25;;;1.50;78.10;;;0.49;62.63;94954.28;5057619;28;20215;-81
2020/12/02 10:14:51;;;;;;;50.92;24.73;;;1.50;78.00;;;0.50;62.56;94943.03;5075226;28;20615;-80
2020/12/02 10:18:17;;;;;;;45.35;22.88;;;1.50;77.90;;;0.47;62.29;94936.34;5075072;28;20199;-81
2020/12/02 10:20:49;;;;;;;50.90;25.23;;;1.60;77.90;;;0.54;62.57;94940.97;5080125;28;20298;-81
2020/12/02 10:23:19;;;;;;;47.92;24.15;;;1.60;77.90;;;0.55;62.79;94930.56;5077082;28;20198;-81
2020/12/02 10:26:02;;;;;;;51.05;25.00;;;1.60;78.00;;;0.58;62.40;94929.47;5077414;28;20204;-81
2020/12/02 10:28:47;;;;;;;46.53;23.55;;;1.60;77.90;;;0.64;62.67;94926.38;5074751;28;20214;-80
2020/12/02 10:31:44;;;;;;;52.78;25.63;;;1.70;77.90;;;0.67;62.21;94927.88;5059587;28;20195;-81
2020/12/02 10:34:14;;;;;;;46.10;23.70;;;1.70;77.80;;;0.66;62.35;94914.16;5076418;28;20692;-81
2020/12/02 10:36:55;;;;;;;52.42;25.75;;;1.70;77.80;;;0.61;62.30;94905.97;5076838;28;20300;-81
2020/12/02 10:39:31;;;;;;;42.45;22.10;;;1.70;77.70;;;0.68;62.16;94917.41;5060120;28;20324;-80
2020/12/02 10:42:25;;;;;;;49.45;22.60;;;1.70;77.70;;;0.70;62.32;94906.97;5093379;28;20242;-82
2020/12/02 10:45:15;;;;;;;45.08;23.58;;;1.70;77.70;;;0.71;62.22;94906.00;5093682;28;20211;-81
2020/12/02 10:48:11;;;;;;;47.40;22.73;;;1.80;77.60;;;0.71;62.15;94901.66;5076744;28;20561;-80
2020/12/02 10:50:40;;;;;;;42.65;22.50;;;1.80;77.60;;;0.77;61.88;94893.41;5077190;28;20686;-81